Time;durP1;ratioP1;P1;durP2;ratioP2;P2;SDS_P1;SDS_P2;PMS_P1;PMS_P2;Temp;Humidity;BMP_temperature;BMP_pressure;BME280_temperature;BME280_humidity;BME280_pressure;Samples;Min_cycle;Max_cycle;Signal;HPM_P1;HPM_P2
2021/09/30 00:00:39;;;;;;;5.03;2.70;;;14.40;52.80;;;;;;5037258;28;20452;-89
2021/09/30 00:03:06;;;;;;;9.33;2.70;;;14.70;52.50;;;;;;5037262;28;20462;-90
2021/09/30 00:05:34;;;;;;;4.30;2.87;;;14.50;50.40;;;;;;5037438;28;20461;-89
2021/09/30 00:08:01;;;;;;;9.10;2.87;;;14.40;51.60;;;;;;5037161;28;20453;-89
2021/09/30 00:10:29;;;;;;;3.00;2.67;;;14.40;53.60;;;;;;5037526;28;20454;-89
2021/09/30 00:12:59;;;;;;;5.50;2.60;;;15.00;55.60;;;;;;5036908;28;20466;-89
2021/09/30 00:15:38;;;;;;;6.37;2.90;;;15.00;51.50;;;;;;5036826;28;20498;-88
2021/09/30 00:34:45;;;;;;;10.13;3.00;;;13.60;53.50;;;;;;5027840;28;20464;-89
2021/09/30 00:45:41;;;;;;;9.03;2.90;;;13.40;55.50;;;;;;4993908;28;20549;-88
2021/09/30 00:48:15;;;;;;;6.67;2.60;;;13.40;54.20;;;;;;5014003;28;20434;-88
2021/09/30 00:50:49;;;;;;;7.40;2.60;;;13.20;53.30;;;;;;5015263;28;20430;-88
2021/09/30 01:58:54;;;;;;;4.90;2.73;;;14.60;51.70;;;;;;5034495;28;20414;-87
2021/09/30 02:29:55;;;;;;;5.17;2.60;;;13.30;56.90;;;;;;4982117;28;20541;-88
2021/09/30 03:00:16;;;;;;;7.40;2.70;;;13.50;55.70;;;;;;5015727;28;20560;-88
2021/09/30 03:02:53;;;;;;;2.87;2.53;;;13.70;54.70;;;;;;5015733;28;20474;-89
2021/09/30 03:05:21;;;;;;;5.90;2.57;;;14.10;55.50;;;;;;5015870;28;20560;-89
2021/09/30 03:07:53;;;;;;;4.90;2.50;;;14.20;51.90;;;;;;5016559;28;20458;-89
2021/09/30 03:10:20;;;;;;;5.10;3.00;;;14.10;53.60;;;;;;5015499;28;20450;-89
2021/09/30 03:12:49;;;;;;;9.67;2.63;;;13.80;53.00;;;;;;5016560;28;20473;-89
2021/09/30 03:15:35;;;;;;;4.47;2.60;;;14.00;51.70;;;;;;5017170;28;20457;-89
2021/09/30 03:18:24;;;;;;;5.70;3.00;;;14.30;55.10;;;;;;5015467;28;20525;-89
2021/09/30 03:21:03;;;;;;;7.23;2.97;;;14.00;50.40;;;;;;5016109;28;20457;-89
2021/09/30 03:23:32;;;;;;;3.80;2.50;;;13.70;52.90;;;;;;5015363;28;20559;-89
2021/09/30 03:26:00;;;;;;;7.53;2.57;;;13.70;54.00;;;;;;5015245;28;20473;-89
2021/09/30 03:28:28;;;;;;;5.43;2.73;;;14.00;54.70;;;;;;5014215;28;20464;-89
2021/09/30 03:30:58;;;;;;;4.20;2.43;;;13.70;52.30;;;;;;5015297;28;20430;-88
2021/09/30 03:33:27;;;;;;;8.67;2.80;;;14.00;55.10;;;;;;5015003;28;20488;-89
2021/09/30 03:35:54;;;;;;;7.70;2.57;;;14.40;53.50;;;;;;5015034;28;20482;-88
2021/09/30 03:38:22;;;;;;;6.50;2.70;;;14.60;53.40;;;;;;5016436;28;20492;-88
2021/09/30 03:40:51;;;;;;;5.73;2.87;;;14.70;52.40;;;;;;5015813;28;20477;-89
2021/09/30 03:43:19;;;;;;;6.83;3.10;;;14.50;51.10;;;;;;5018638;28;20493;-89
2021/09/30 03:45:46;;;;;;;3.23;2.40;;;14.60;53.00;;;;;;5033312;28;20494;-89
2021/09/30 03:48:14;;;;;;;4.50;2.67;;;14.50;51.80;;;;;;5015843;28;20801;-89
2021/09/30 03:50:48;;;;;;;4.23;2.93;;;14.70;53.10;;;;;;5015544;28;20450;-89
2021/09/30 03:53:23;;;;;;;19.47;3.37;;;14.70;52.70;;;;;;5015862;28;20493;-88
2021/09/30 03:56:07;;;;;;;5.13;2.80;;;14.90;54.00;;;;;;5016104;28;20433;-88
2021/09/30 04:01:18;;;;;;;4.27;2.67;;;14.70;51.30;;;;;;5015691;28;20418;-88
2021/09/30 04:03:45;;;;;;;3.77;3.00;;;14.90;54.00;;;;;;5014096;28;20565;-88
2021/09/30 04:06:13;;;;;;;5.90;2.83;;;15.30;53.10;;;;;;5014708;28;20520;-88
2021/09/30 04:08:40;;;;;;;4.40;2.60;;;15.40;50.20;;;;;;5014912;28;20948;-88
2021/09/30 04:11:08;;;;;;;5.67;2.73;;;15.70;53.10;;;;;;5015346;28;20445;-88
2021/09/30 04:13:35;;;;;;;3.37;2.50;;;15.70;52.40;;;;;;5014605;28;20467;-88
2021/09/30 04:16:02;;;;;;;5.93;2.97;;;15.50;53.00;;;;;;5014539;28;20500;-88
2021/09/30 04:18:29;;;;;;;5.93;3.17;;;15.50;52.90;;;;;;5015006;28;20508;-88
2021/09/30 04:20:57;;;;;;;6.77;3.07;;;15.70;53.40;;;;;;5016491;28;20541;-88
2021/09/30 04:23:24;;;;;;;5.13;3.07;;;15.60;50.80;;;;;;5014925;28;20503;-88
2021/09/30 04:25:51;;;;;;;4.63;2.63;;;15.50;51.90;;;;;;5014432;28;20493;-88
2021/09/30 04:28:19;;;;;;;9.50;2.87;;;15.60;50.50;;;;;;5014591;28;20481;-88
2021/09/30 04:30:47;;;;;;;17.80;4.53;;;15.60;52.50;;;;;;5015078;28;20438;-88
2021/09/30 04:33:14;;;;;;;6.60;2.90;;;15.90;52.90;;;;;;5014366;28;20536;-88
2021/09/30 04:35:41;;;;;;;7.87;4.33;;;16.00;53.40;;;;;;5014169;28;20497;-88
2021/09/30 04:38:09;;;;;;;4.13;2.77;;;16.10;48.20;;;;;;5014047;28;20451;-88
2021/09/30 04:40:37;;;;;;;3.47;2.60;;;15.60;51.30;;;;;;5013802;28;20478;-88
2021/09/30 04:43:04;;;;;;;4.47;2.70;;;15.40;51.00;;;;;;5014332;28;20541;-88
2021/09/30 04:45:34;;;;;;;4.37;2.93;;;15.20;51.10;;;;;;5016073;28;20478;-89
2021/09/30 04:48:01;;;;;;;5.87;2.93;;;14.80;52.80;;;;;;5014103;28;20546;-89
2021/09/30 04:50:28;;;;;;;2.60;2.30;;;14.70;53.90;;;;;;5015354;28;20462;-89
2021/09/30 04:53:00;;;;;;;6.37;2.70;;;14.90;54.10;;;;;;5014088;28;20528;-89
2021/09/30 04:55:27;;;;;;;3.43;2.63;;;15.20;53.90;;;;;;5013626;28;20454;-89
2021/09/30 04:57:54;;;;;;;3.13;2.47;;;15.30;52.20;;;;;;5014004;28;20512;-89
2021/09/30 05:00:21;;;;;;;2.83;2.33;;;15.10;53.40;;;;;;5013324;28;20489;-89
2021/09/30 05:02:50;;;;;;;4.23;2.87;;;15.00;53.10;;;;;;5013902;28;20775;-89
2021/09/30 05:05:17;;;;;;;6.60;2.70;;;15.00;51.60;;;;;;5013303;28;20482;-89
2021/09/30 05:07:44;;;;;;;4.20;2.50;;;14.90;52.30;;;;;;5011625;28;20545;-89
2021/09/30 05:10:13;;;;;;;4.50;2.70;;;14.60;52.30;;;;;;5017848;28;20498;-89
2021/09/30 05:12:41;;;;;;;3.53;2.73;;;14.20;51.40;;;;;;5024115;28;20512;-89
2021/09/30 05:15:10;;;;;;;8.40;2.80;;;13.80;52.10;;;;;;5025031;28;20441;-89
2021/09/30 05:17:37;;;;;;;6.03;3.30;;;13.60;52.90;;;;;;5025564;28;20454;-90
2021/09/30 05:20:06;;;;;;;5.33;3.20;;;13.40;54.00;;;;;;5016490;28;20973;-90
2021/09/30 05:22:33;;;;;;;6.30;2.80;;;13.30;53.60;;;;;;5013196;28;20437;-89
2021/09/30 05:25:00;;;;;;;4.47;3.03;;;13.50;55.00;;;;;;5013252;28;20491;-89
2021/09/30 05:27:27;;;;;;;15.87;3.00;;;13.50;55.90;;;;;;5013681;28;20719;-89
2021/09/30 05:29:54;;;;;;;5.27;3.43;;;13.90;55.40;;;;;;5020945;28;20441;-90
2021/09/30 05:32:21;;;;;;;6.33;3.30;;;14.00;53.20;;;;;;5015085;28;20431;-90
2021/09/30 05:34:48;;;;;;;5.87;3.00;;;13.90;52.00;;;;;;5031718;28;20531;-90
2021/09/30 05:37:17;;;;;;;6.93;2.90;;;13.40;53.20;;;;;;5013559;28;20537;-90
2021/09/30 05:39:45;;;;;;;14.50;2.87;;;13.10;52.40;;;;;;5013165;28;20445;-90
2021/09/30 05:42:13;;;;;;;4.67;3.27;;;13.00;54.80;;;;;;5012964;28;20536;-89
2021/09/30 05:44:40;;;;;;;3.70;2.53;;;13.30;51.70;;;;;;5012530;28;20458;-89
2021/09/30 05:47:07;;;;;;;9.07;3.10;;;13.50;52.80;;;;;;5013070;28;20511;-90
2021/09/30 05:49:34;;;;;;;4.17;2.60;;;14.10;52.40;;;;;;5012464;28;20575;-90
2021/09/30 05:52:01;;;;;;;5.27;3.43;;;14.70;52.80;;;;;;5014041;28;20482;-90
2021/09/30 05:54:30;;;;;;;7.00;3.20;;;15.10;51.10;;;;;;5016092;28;20556;-90
2021/09/30 05:56:57;;;;;;;4.10;2.70;;;14.50;46.80;;;;;;5016957;28;20500;-90
2021/09/30 05:59:25;;;;;;;4.73;2.77;;;14.80;52.50;;;;;;5016508;28;20496;-90
2021/09/30 06:12:55;;;;;;;20.97;4.37;;;16.60;49.40;;;;;;5016628;28;20451;-90
2021/09/30 06:15:34;;;;;;;9.90;3.07;;;16.70;51.70;;;;;;5016735;28;20512;-91
2021/09/30 06:18:02;;;;;;;6.87;3.60;;;17.20;52.30;;;;;;5017230;28;20448;-91
2021/09/30 06:20:29;;;;;;;4.70;3.20;;;18.10;48.60;;;;;;5015740;28;20538;-91
2021/09/30 06:22:56;;;;;;;7.57;2.93;;;19.10;47.40;;;;;;5015366;28;20532;-90
2021/09/30 06:25:27;;;;;;;6.63;3.33;;;19.90;40.50;;;;;;5015805;28;20513;-91
2021/09/30 06:27:56;;;;;;;2.77;2.00;;;21.00;40.00;;;;;;5016113;28;20415;-91
2021/09/30 06:30:29;;;;;;;6.60;2.60;;;22.00;36.70;;;;;;5015709;28;20874;-90
2021/09/30 06:32:56;;;;;;;5.23;2.90;;;22.40;34.70;;;;;;5015487;28;20453;-91
2021/09/30 06:35:23;;;;;;;3.10;2.47;;;22.40;32.00;;;;;;5015919;28;20438;-91
2021/09/30 06:37:50;;;;;;;10.40;2.80;;;22.70;32.30;;;;;;5015986;28;20547;-91
2021/09/30 06:40:17;;;;;;;4.67;2.60;;;22.90;32.00;;;;;;5015627;28;20912;-91
2021/09/30 06:42:46;;;;;;;4.30;2.53;;;22.90;30.10;;;;;;5015257;28;20462;-91
2021/09/30 06:45:13;;;;;;;7.07;2.80;;;22.70;31.00;;;;;;5018343;28;20438;-91
2021/09/30 06:47:40;;;;;;;5.83;2.43;;;22.90;32.40;;;;;;5037471;28;20466;-91
2021/09/30 06:50:10;;;;;;;8.13;2.33;;;23.10;30.00;;;;;;5034771;28;20470;-91
2021/09/30 06:52:37;;;;;;;7.00;2.60;;;23.50;30.60;;;;;;5017381;28;20457;-91
2021/09/30 06:55:06;;;;;;;6.47;2.50;;;23.60;29.60;;;;;;5015811;28;20994;-90
2021/09/30 06:57:33;;;;;;;3.70;2.27;;;23.60;29.30;;;;;;5015419;28;20489;-90
2021/09/30 07:00:06;;;;;;;5.07;2.80;;;22.60;29.60;;;;;;5016922;28;20434;-91
2021/09/30 07:02:33;;;;;;;4.40;2.70;;;21.50;32.40;;;;;;5015287;28;20442;-91
2021/09/30 07:05:00;;;;;;;3.60;2.57;;;20.90;33.10;;;;;;5015107;28;20776;-91
2021/09/30 07:07:28;;;;;;;8.40;2.43;;;20.20;33.90;;;;;;5022150;28;20513;-89
2021/09/30 07:09:55;;;;;;;7.57;3.40;;;19.50;36.20;;;;;;5027259;28;20827;-91
2021/09/30 07:12:22;;;;;;;8.27;2.80;;;19.20;36.60;;;;;;5014832;28;20808;-91
2021/09/30 07:14:50;;;;;;;7.07;2.67;;;19.00;37.00;;;;;;5014513;28;20438;-90
2021/09/30 07:17:19;;;;;;;5.00;2.50;;;18.70;37.70;;;;;;5014825;28;20873;-91
2021/09/30 07:19:46;;;;;;;7.23;2.70;;;18.60;38.70;;;;;;5015484;28;20947;-91
2021/09/30 07:22:13;;;;;;;5.63;2.53;;;18.50;39.80;;;;;;5014745;28;20450;-91
2021/09/30 07:24:40;;;;;;;3.30;2.27;;;18.80;38.10;;;;;;5014893;28;20455;-91
2021/09/30 07:27:08;;;;;;;6.03;2.27;;;19.00;38.60;;;;;;5015306;28;20489;-91
2021/09/30 07:29:37;;;;;;;10.47;2.40;;;18.90;37.70;;;;;;5014736;28;20435;-90
2021/09/30 07:32:05;;;;;;;4.00;2.40;;;19.00;36.70;;;;;;5015214;28;20470;-92
2021/09/30 07:34:39;;;;;;;3.53;2.40;;;19.60;36.90;;;;;;5018566;28;20489;-91
2021/09/30 07:37:07;;;;;;;4.87;2.50;;;19.60;35.60;;;;;;5016381;28;20456;-91
2021/09/30 07:39:34;;;;;;;13.33;2.37;;;19.60;36.20;;;;;;5015077;28;20523;-91
2021/09/30 07:42:01;;;;;;;8.23;2.00;;;19.60;35.30;;;;;;5016442;28;20521;-91
2021/09/30 07:44:28;;;;;;;6.13;2.73;;;19.60;35.00;;;;;;5016251;28;20569;-91
2021/09/30 07:46:58;;;;;;;3.90;2.53;;;19.90;38.80;;;;;;5017065;28;20991;-90
2021/09/30 07:49:27;;;;;;;2.43;2.00;;;20.50;35.10;;;;;;5017755;28;20458;-91
2021/09/30 07:51:57;;;;;;;19.37;3.83;;;20.50;37.70;;;;;;5016713;28;20438;-90
2021/09/30 07:54:24;;;;;;;9.40;2.90;;;20.60;35.40;;;;;;5016748;28;21061;-91
2021/09/30 07:56:51;;;;;;;3.07;2.27;;;21.00;33.20;;;;;;5017222;28;20429;-91
2021/09/30 07:59:18;;;;;;;3.67;2.00;;;21.00;33.70;;;;;;5017176;28;20851;-91
2021/09/30 08:01:45;;;;;;;10.60;3.17;;;21.90;33.50;;;;;;5029186;28;20430;-89
2021/09/30 08:04:14;;;;;;;3.80;2.30;;;22.50;30.20;;;;;;5032457;28;20454;-89
2021/09/30 08:06:42;;;;;;;5.30;2.33;;;22.70;29.80;;;;;;5033075;28;20476;-89
2021/09/30 08:09:10;;;;;;;5.80;2.60;;;23.00;30.80;;;;;;5031975;28;20502;-89
2021/09/30 08:11:37;;;;;;;9.37;2.30;;;23.40;28.30;;;;;;5032988;28;20430;-89
2021/09/30 08:14:05;;;;;;;5.23;1.97;;;23.50;28.60;;;;;;5031762;28;20454;-89
2021/09/30 08:16:32;;;;;;;5.50;1.90;;;23.20;29.70;;;;;;5031270;28;20438;-89
2021/09/30 08:18:59;;;;;;;7.73;2.33;;;22.90;32.00;;;;;;5035314;28;20430;-89
2021/09/30 08:21:28;;;;;;;6.73;2.80;;;23.10;30.00;;;;;;5035720;28;20506;-89
2021/09/30 08:23:55;;;;;;;5.63;2.23;;;23.10;30.50;;;;;;5035556;28;20478;-89
2021/09/30 08:26:23;;;;;;;6.43;2.70;;;22.80;32.30;;;;;;5036461;28;20458;-89
2021/09/30 08:28:51;;;;;;;11.03;3.47;;;22.30;30.70;;;;;;5034250;28;20477;-89
2021/09/30 08:31:21;;;;;;;9.53;2.77;;;21.20;33.20;;;;;;5034470;28;20442;-89
2021/09/30 08:33:48;;;;;;;4.60;2.33;;;20.70;32.80;;;;;;5025901;28;20501;-90
2021/09/30 08:36:15;;;;;;;3.83;2.47;;;20.50;35.70;;;;;;5029976;28;20438;-91
2021/09/30 08:38:46;;;;;;;2.20;2.10;;;20.20;39.90;;;;;;5019538;28;20492;-91
2021/09/30 08:41:15;;;;;;;5.07;2.80;;;20.20;36.50;;;;;;5018735;28;20503;-89
2021/09/30 08:43:43;;;;;;;3.73;2.50;;;20.30;35.00;;;;;;5028825;28;20458;-89
2021/09/30 08:46:11;;;;;;;6.47;2.20;;;20.40;36.50;;;;;;5017192;28;20851;-89
2021/09/30 08:48:38;;;;;;;4.03;2.20;;;20.50;35.30;;;;;;5015221;28;20434;-89
2021/09/30 08:51:06;;;;;;;17.73;2.30;;;20.60;34.50;;;;;;5014423;28;20905;-89
2021/09/30 08:53:34;;;;;;;7.80;2.40;;;19.80;37.10;;;;;;5016012;28;20524;-89
2021/09/30 08:56:01;;;;;;;7.57;2.27;;;19.80;38.60;;;;;;5015154;28;20484;-89
2021/09/30 08:58:28;;;;;;;7.80;1.90;;;19.80;37.20;;;;;;5014581;28;20422;-89
2021/09/30 09:00:58;;;;;;;10.13;3.00;;;20.20;35.00;;;;;;5016237;28;20481;-89
2021/09/30 09:03:33;;;;;;;3.40;1.90;;;20.60;34.50;;;;;;5027361;28;20520;-89
2021/09/30 09:06:00;;;;;;;3.17;1.90;;;20.70;31.90;;;;;;5028035;28;20457;-89
2021/09/30 09:08:27;;;;;;;4.10;2.00;;;20.50;31.70;;;;;;5033265;28;20442;-89
2021/09/30 09:10:58;;;;;;;13.97;8.10;;;20.00;32.20;;;;;;5032699;28;20457;-89
2021/09/30 09:13:25;;;;;;;11.33;3.03;;;20.10;33.60;;;;;;5032514;28;20462;-90
2021/09/30 09:15:57;;;;;;;4.53;2.20;;;19.80;33.90;;;;;;5031179;28;20430;-89
2021/09/30 09:18:27;;;;;;;8.70;2.70;;;20.10;32.40;;;;;;5032563;28;20430;-89
2021/09/30 09:21:07;;;;;;;4.27;2.77;;;20.40;37.30;;;;;;5033388;28;20462;-88
2021/09/30 09:23:40;;;;;;;6.87;2.13;;;20.40;35.50;;;;;;5034938;28;20485;-89
2021/09/30 09:26:09;;;;;;;4.10;2.20;;;20.20;30.00;;;;;;5034579;28;20436;-90
2021/09/30 09:28:39;;;;;;;2.73;1.90;;;20.40;33.10;;;;;;5039107;28;20496;-90
2021/09/30 09:31:06;;;;;;;6.70;2.20;;;20.90;35.00;;;;;;5038569;28;20446;-90
2021/09/30 09:33:37;;;;;;;3.60;2.20;;;21.20;29.20;;;;;;5038331;28;20576;-90
2021/09/30 09:36:06;;;;;;;4.80;2.10;;;21.10;32.30;;;;;;5038038;28;20534;-90
2021/09/30 09:38:47;;;;;;;3.83;2.23;;;20.50;29.90;;;;;;5023817;28;20504;-89
2021/09/30 09:41:22;;;;;;;7.27;2.43;;;20.50;30.00;;;;;;5028042;28;20450;-90
2021/09/30 09:43:51;;;;;;;4.47;2.00;;;20.60;29.90;;;;;;5036883;28;20496;-89
2021/09/30 09:46:21;;;;;;;12.63;6.67;;;20.70;34.20;;;;;;5039017;28;20497;-89
2021/09/30 09:48:58;;;;;;;4.53;2.40;;;20.90;29.90;;;;;;5038343;28;20430;-89
2021/09/30 09:51:26;;;;;;;7.43;2.50;;;20.90;29.60;;;;;;5038575;28;20425;-89
2021/09/30 09:53:57;;;;;;;6.10;2.27;;;20.30;37.50;;;;;;5038702;28;20453;-89
2021/09/30 09:56:24;;;;;;;6.10;3.33;;;20.30;30.30;;;;;;5039083;28;20441;-89
2021/09/30 09:58:55;;;;;;;6.43;2.57;;;20.30;35.40;;;;;;5033673;28;20454;-89
2021/09/30 10:01:24;;;;;;;7.10;2.77;;;20.60;28.40;;;;;;5019406;28;20784;-89
2021/09/30 10:04:01;;;;;;;3.20;1.90;;;20.80;30.50;;;;;;5018571;28;20461;-89
2021/09/30 10:06:30;;;;;;;3.40;1.80;;;20.90;31.90;;;;;;5018630;28;20477;-89
2021/09/30 10:08:57;;;;;;;3.17;1.80;;;21.10;31.90;;;;;;5019690;28;20457;-90
2021/09/30 10:11:26;;;;;;;4.33;1.90;;;21.40;31.00;;;;;;5019213;28;20465;-91
2021/09/30 10:13:53;;;;;;;2.90;1.80;;;21.20;29.20;;;;;;5017317;28;20488;-92
2021/09/30 10:16:25;;;;;;;5.63;2.20;;;20.90;30.10;;;;;;5020803;28;20425;-91
2021/09/30 10:18:54;;;;;;;5.73;1.87;;;20.80;27.80;;;;;;5028596;28;20422;-91
2021/09/30 10:21:23;;;;;;;5.10;1.93;;;20.70;29.10;;;;;;5017877;28;20505;-91
2021/09/30 10:23:53;;;;;;;3.17;1.93;;;20.80;28.00;;;;;;5035668;28;20529;-91
2021/09/30 10:26:25;;;;;;;4.10;2.07;;;20.90;28.20;;;;;;5029596;28;20932;-91
2021/09/30 10:28:52;;;;;;;2.43;1.80;;;20.30;33.80;;;;;;5018052;28;20444;-91
2021/09/30 10:31:25;;;;;;;7.87;2.33;;;20.30;28.70;;;;;;5018675;28;20907;-91
2021/09/30 10:33:54;;;;;;;2.13;1.83;;;20.30;29.00;;;;;;5017448;28;20502;-91
2021/09/30 10:36:37;;;;;;;5.20;1.93;;;20.90;30.60;;;;;;5017117;28;20440;-91
2021/09/30 10:39:25;;;;;;;2.83;1.70;;;20.80;30.50;;;;;;5016543;28;20516;-91
2021/09/30 10:41:55;;;;;;;5.90;1.80;;;20.70;27.20;;;;;;5018626;28;20454;-91
2021/09/30 10:44:23;;;;;;;3.40;2.10;;;20.80;29.80;;;;;;5034665;28;20458;-89
2021/09/30 10:46:53;;;;;;;3.00;1.90;;;21.10;29.30;;;;;;5036018;28;20461;-89
2021/09/30 10:49:42;;;;;;;4.43;1.90;;;21.30;33.10;;;;;;5033180;28;20430;-90
2021/09/30 10:52:31;;;;;;;9.83;2.37;;;21.70;31.30;;;;;;5027818;28;20435;-89
2021/09/30 10:55:27;;;;;;;8.90;2.03;;;21.70;30.20;;;;;;5018490;28;20486;-89
2021/09/30 10:57:56;;;;;;;3.80;2.00;;;21.80;26.00;;;;;;5018239;28;20516;-89
2021/09/30 11:00:46;;;;;;;3.10;2.00;;;21.40;28.70;;;;;;5018603;28;20551;-89
2021/09/30 11:03:23;;;;;;;3.03;1.70;;;21.50;32.10;;;;;;5037909;28;20477;-89
2021/09/30 11:06:22;;;;;;;3.80;2.83;;;20.90;26.50;;;;;;5023446;28;20448;-90
2021/09/30 11:09:16;;;;;;;6.23;1.90;;;20.70;28.70;;;;;;5016830;28;20508;-90
2021/09/30 11:11:46;;;;;;;2.33;2.00;;;20.50;26.80;;;;;;5015669;28;20891;-90
2021/09/30 11:14:22;;;;;;;4.00;2.07;;;19.90;27.20;;;;;;5016053;28;20979;-90
2021/09/30 11:16:51;;;;;;;8.23;2.30;;;20.10;34.60;;;;;;5016477;28;20458;-90
2021/09/30 11:19:30;;;;;;;2.60;1.90;;;20.30;28.20;;;;;;5015629;28;20951;-90
2021/09/30 11:22:00;;;;;;;15.47;2.10;;;20.50;35.10;;;;;;5015747;28;20811;-90
2021/09/30 11:24:34;;;;;;;7.77;2.10;;;20.40;28.10;;;;;;5015884;28;20482;-90
2021/09/30 11:27:30;;;;;;;5.57;2.47;;;20.10;28.90;;;;;;5015356;28;21044;-90
2021/09/30 11:30:25;;;;;;;5.00;2.00;;;20.60;28.40;;;;;;5016128;28;20464;-90
2021/09/30 11:32:59;;;;;;;6.20;2.23;;;20.70;26.40;;;;;;5015983;28;20556;-90
2021/09/30 11:35:27;;;;;;;4.90;2.00;;;20.90;29.50;;;;;;5015239;28;20446;-90
2021/09/30 11:37:54;;;;;;;3.10;1.80;;;20.80;26.00;;;;;;5015418;28;20496;-90
2021/09/30 11:40:23;;;;;;;5.57;2.13;;;20.70;26.50;;;;;;5015399;28;20500;-90
2021/09/30 11:42:54;;;;;;;3.10;2.10;;;20.60;26.10;;;;;;5015249;28;20844;-90
2021/09/30 11:45:23;;;;;;;4.77;1.87;;;20.80;28.30;;;;;;5015194;28;20794;-90
2021/09/30 11:47:51;;;;;;;4.17;2.30;;;20.60;26.00;;;;;;5014993;28;20901;-90
2021/09/30 11:50:22;;;;;;;3.97;1.80;;;20.90;26.30;;;;;;5016089;28;20505;-90
2021/09/30 11:53:02;;;;;;;3.53;2.33;;;21.00;26.80;;;;;;5032073;28;20462;-90
2021/09/30 11:55:34;;;;;;;5.33;1.70;;;20.70;28.80;;;;;;5014680;28;20545;-89
2021/09/30 11:58:03;;;;;;;6.43;1.80;;;20.60;26.60;;;;;;5015429;28;20525;-90
2021/09/30 12:00:32;;;;;;;2.50;1.80;;;20.50;25.90;;;;;;5026605;28;20465;-90
2021/09/30 12:03:04;;;;;;;3.00;1.80;;;20.30;25.00;;;;;;5027752;28;20526;-90
2021/09/30 12:05:34;;;;;;;3.70;2.00;;;20.10;24.50;;;;;;5015101;28;20518;-90
2021/09/30 12:08:03;;;;;;;2.37;1.77;;;19.80;26.20;;;;;;5014627;28;20852;-90
2021/09/30 12:10:34;;;;;;;5.93;2.20;;;20.60;25.90;;;;;;5014739;28;20477;-91
2021/09/30 12:13:11;;;;;;;4.47;2.50;;;21.30;34.50;;;;;;5014402;28;20987;-90
2021/09/30 12:15:39;;;;;;;2.57;1.90;;;21.10;24.80;;;;;;5014583;28;20454;-90
2021/09/30 12:18:15;;;;;;;2.33;1.60;;;20.90;26.60;;;;;;5015642;28;20481;-90
2021/09/30 12:20:48;;;;;;;7.63;2.03;;;21.00;26.20;;;;;;5016025;28;20923;-90
2021/09/30 12:23:16;;;;;;;3.40;1.80;;;21.00;25.20;;;;;;5015062;28;20454;-90
2021/09/30 12:25:45;;;;;;;3.40;2.00;;;20.80;25.00;;;;;;5014269;28;20474;-90
2021/09/30 12:28:12;;;;;;;4.13;2.20;;;20.90;28.00;;;;;;5014161;28;20478;-90
2021/09/30 12:30:40;;;;;;;6.93;2.00;;;20.90;25.10;;;;;;5014272;28;20537;-90
2021/09/30 12:33:08;;;;;;;2.00;1.83;;;20.80;24.70;;;;;;5014668;28;20524;-91
2021/09/30 12:35:37;;;;;;;2.80;1.70;;;20.40;25.80;;;;;;5014398;28;20450;-90
2021/09/30 12:38:05;;;;;;;2.63;1.97;;;20.50;26.70;;;;;;5014993;28;20454;-90
2021/09/30 12:40:38;;;;;;;3.93;2.20;;;20.70;29.30;;;;;;5014565;28;20897;-89
2021/09/30 12:43:10;;;;;;;2.33;1.70;;;20.50;25.50;;;;;;5013776;28;20502;-90
2021/09/30 12:45:39;;;;;;;2.43;1.87;;;20.60;24.90;;;;;;5014055;28;20474;-90
2021/09/30 12:48:10;;;;;;;3.83;1.60;;;20.60;24.50;;;;;;5013215;28;21007;-90
2021/09/30 12:50:40;;;;;;;6.83;2.10;;;21.00;29.20;;;;;;5013857;28;20445;-90
2021/09/30 12:53:08;;;;;;;9.60;2.70;;;20.90;26.10;;;;;;5014080;28;20524;-90
2021/09/30 12:55:36;;;;;;;2.80;1.97;;;20.60;26.30;;;;;;5013564;28;20538;-90
2021/09/30 12:58:04;;;;;;;5.67;2.30;;;21.10;28.50;;;;;;5014388;28;20516;-90
2021/09/30 13:00:37;;;;;;;2.80;1.67;;;21.50;26.10;;;;;;5013987;28;20485;-90
2021/09/30 13:03:16;;;;;;;3.03;1.93;;;21.50;33.10;;;;;;5013657;28;20470;-90
2021/09/30 13:05:47;;;;;;;4.20;2.30;;;21.40;24.70;;;;;;5014205;28;20508;-90
2021/09/30 13:08:14;;;;;;;5.00;1.97;;;21.50;27.30;;;;;;5014496;28;20481;-90
2021/09/30 13:10:41;;;;;;;3.43;1.97;;;21.60;25.20;;;;;;5014684;28;20480;-89
2021/09/30 13:13:13;;;;;;;6.57;1.80;;;21.70;24.70;;;;;;5014094;28;20466;-90
2021/09/30 13:15:44;;;;;;;3.80;1.80;;;21.40;24.60;;;;;;5014739;28;20416;-90
2021/09/30 13:18:12;;;;;;;4.43;2.63;;;21.20;25.80;;;;;;5014282;28;20466;-90
2021/09/30 13:20:42;;;;;;;4.53;1.70;;;21.10;25.40;;;;;;5014344;28;20431;-90
2021/09/30 13:23:10;;;;;;;3.10;2.00;;;21.40;28.10;;;;;;5013931;28;20458;-89
2021/09/30 13:25:38;;;;;;;1.93;1.83;;;21.50;25.40;;;;;;5022438;28;20476;-89
2021/09/30 13:28:05;;;;;;;6.63;1.90;;;21.50;24.70;;;;;;5024999;28;20971;-89
2021/09/30 13:30:34;;;;;;;3.70;1.80;;;21.50;25.10;;;;;;5014418;28;20488;-89
2021/09/30 13:33:05;;;;;;;3.97;1.80;;;21.30;24.40;;;;;;5015145;28;20524;-89
2021/09/30 13:35:35;;;;;;;5.03;2.33;;;21.10;24.70;;;;;;5015496;28;20433;-89
2021/09/30 13:38:02;;;;;;;2.00;1.90;;;20.70;24.50;;;;;;5018452;28;20439;-89
2021/09/30 13:40:29;;;;;;;3.60;1.90;;;20.40;24.80;;;;;;5013565;28;20512;-89
2021/09/30 13:42:56;;;;;;;2.90;2.03;;;20.70;27.20;;;;;;5017441;28;20581;-89
2021/09/30 13:45:24;;;;;;;2.37;1.70;;;20.80;23.70;;;;;;5014152;28;20915;-89
2021/09/30 13:47:51;;;;;;;12.13;1.90;;;21.20;26.40;;;;;;5013438;28;20916;-90
2021/09/30 13:50:21;;;;;;;3.23;1.73;;;21.50;25.10;;;;;;5013139;28;20461;-89
2021/09/30 13:52:50;;;;;;;2.17;1.80;;;21.30;24.30;;;;;;5013727;28;20478;-89
2021/09/30 13:55:18;;;;;;;4.60;2.00;;;20.90;23.70;;;;;;5013356;28;20863;-89
2021/09/30 13:57:46;;;;;;;2.20;1.80;;;20.80;25.50;;;;;;5013293;28;20936;-89
2021/09/30 14:00:15;;;;;;;2.23;1.70;;;21.00;27.80;;;;;;5013393;28;20458;-89
2021/09/30 14:02:45;;;;;;;3.37;1.70;;;21.20;26.90;;;;;;5013959;28;20502;-89
2021/09/30 14:05:14;;;;;;;2.70;1.73;;;21.30;24.60;;;;;;5012925;28;20443;-89
2021/09/30 14:07:42;;;;;;;3.73;2.73;;;21.10;25.50;;;;;;5012871;28;20521;-89
2021/09/30 14:10:13;;;;;;;3.53;2.33;;;20.90;27.10;;;;;;5013081;28;20480;-89
2021/09/30 14:12:40;;;;;;;2.93;1.70;;;21.00;24.70;;;;;;5014071;28;20512;-89
2021/09/30 14:15:08;;;;;;;3.57;2.00;;;20.90;27.20;;;;;;5019158;28;20454;-90
2021/09/30 14:17:38;;;;;;;4.77;2.30;;;21.00;29.10;;;;;;5019126;28;20461;-89
2021/09/30 14:20:05;;;;;;;9.13;2.67;;;20.70;23.70;;;;;;5016761;28;20544;-90
2021/09/30 14:22:32;;;;;;;4.87;1.80;;;20.30;24.20;;;;;;5017268;28;20936;-89
2021/09/30 14:25:01;;;;;;;3.13;2.30;;;20.30;27.50;;;;;;5016811;28;20511;-89
2021/09/30 14:27:30;;;;;;;7.90;2.07;;;20.70;24.60;;;;;;5019979;28;20437;-89
2021/09/30 14:29:58;;;;;;;2.50;1.70;;;21.10;24.00;;;;;;5020180;28;20478;-89
2021/09/30 14:32:25;;;;;;;2.17;1.63;;;21.20;23.20;;;;;;5016892;28;20830;-89
2021/09/30 14:34:52;;;;;;;3.17;1.80;;;21.30;28.70;;;;;;5016816;28;20489;-89
2021/09/30 14:37:19;;;;;;;4.17;2.53;;;21.50;25.10;;;;;;5016861;28;20549;-89
2021/09/30 14:39:46;;;;;;;5.30;1.90;;;21.40;24.50;;;;;;5019570;28;20443;-89
2021/09/30 14:42:15;;;;;;;6.27;2.13;;;20.70;24.00;;;;;;5017092;28;20434;-89
2021/09/30 14:44:42;;;;;;;2.70;1.70;;;20.30;24.80;;;;;;5017358;28;20544;-89
2021/09/30 14:47:10;;;;;;;8.10;2.47;;;20.60;25.70;;;;;;5022662;28;20471;-89
2021/09/30 14:49:39;;;;;;;4.53;2.13;;;20.90;25.60;;;;;;5016822;28;20544;-89
2021/09/30 14:52:08;;;;;;;3.10;1.70;;;21.20;32.60;;;;;;5017930;28;20979;-89
2021/09/30 14:54:35;;;;;;;2.00;1.77;;;21.50;31.10;;;;;;5029655;28;20454;-89
2021/09/30 14:57:02;;;;;;;6.47;2.20;;;21.50;24.70;;;;;;5027805;28;20442;-89
2021/09/30 14:59:30;;;;;;;2.27;2.00;;;21.40;25.00;;;;;;5016435;28;20488;-89
2021/09/30 15:01:57;;;;;;;3.50;2.23;;;21.40;27.10;;;;;;5017515;28;20515;-89
2021/09/30 15:04:24;;;;;;;2.10;1.63;;;21.40;31.60;;;;;;5016111;28;20546;-89
2021/09/30 15:06:51;;;;;;;2.33;1.80;;;21.50;32.00;;;;;;5015728;28;20446;-89
2021/09/30 15:09:18;;;;;;;4.77;1.93;;;21.60;29.40;;;;;;5015514;28;20515;-89
2021/09/30 15:11:46;;;;;;;1.70;1.60;;;21.60;28.70;;;;;;5015574;28;20944;-89
2021/09/30 15:14:13;;;;;;;3.60;1.97;;;21.50;27.30;;;;;;5015514;28;20508;-89
2021/09/30 15:16:49;;;;;;;4.17;2.40;;;21.40;25.00;;;;;;5016015;28;20481;-88
2021/09/30 15:19:18;;;;;;;4.10;2.10;;;20.90;24.70;;;;;;5015790;28;20442;-89
2021/09/30 15:21:45;;;;;;;3.73;2.30;;;20.70;24.60;;;;;;5016012;28;20939;-88
2021/09/30 15:24:14;;;;;;;2.97;2.20;;;20.40;25.20;;;;;;5014539;28;20497;-88
2021/09/30 15:26:43;;;;;;;5.77;2.57;;;20.40;26.00;;;;;;5025870;28;20492;-88
2021/09/30 15:29:11;;;;;;;7.20;2.30;;;20.10;25.30;;;;;;5029982;28;20531;-88
2021/09/30 15:31:42;;;;;;;4.63;2.33;;;19.90;25.30;;;;;;5017971;28;20454;-88
2021/09/30 15:34:10;;;;;;;5.43;2.00;;;19.80;25.60;;;;;;5015636;28;20532;-88
2021/09/30 15:36:37;;;;;;;5.77;1.97;;;19.70;25.80;;;;;;5016133;28;20537;-88
2021/09/30 15:39:06;;;;;;;4.40;1.80;;;20.00;26.00;;;;;;5016541;28;20511;-88